Terminal Aerodrome Forecast
Issued by NWS Wilmington, OH

Current Version | Previous Version | Graphics & Text | Print | Product List | Glossary On
Versions: 1 2 3 4 5 6 7 8 9 10 11 12 13 14 15 16 17 18 19 20 21
000
FTUS41 KILN 190500
TAFCMH
TAF
KCMH 190526Z 1906/2006 24007KT 6SM -SHSN BKN050
     FM190900 21007KT P6SM BKN250
     FM191300 18010G18KT P6SM BKN250
     FM191500 18016G26KT P6SM SCT060
     FM191900 19018G28KT P6SM VCSH OVC040
     FM192200 21018G25KT P6SM -SHSN OVC025
     FM200000 25015KT P6SM -SHSN OVC015=

USA.gov is the U.S. government's official web portal to all federal, state and local government web resources and services.